createdAt,value
2022-11-04T00:00:28.604Z,100016.63
2022-11-04T00:03:00.869Z,100000.91
2022-11-04T00:05:28.242Z,100007.03
2022-11-04T00:08:13.998Z,99996.56
2022-11-04T00:10:59.927Z,99991.34
2022-11-04T00:13:30.243Z,99985.72
2022-11-04T00:16:21.779Z,99976.91
2022-11-04T00:18:52.057Z,99953.53
2022-11-04T00:21:41.276Z,99946.34
2022-11-04T00:24:29.633Z,99939.06
2022-11-04T00:27:15.823Z,99939.50
2022-11-04T00:29:43.352Z,99928.19
2022-11-04T00:32:29.181Z,99933.84
2022-11-04T00:35:02.568Z,99925.00
2022-11-04T00:37:32.969Z,99920.56
2022-11-04T00:40:02.351Z,99912.13
2022-11-04T00:42:33.865Z,99905.28
2022-11-04T00:45:09.820Z,99898.41
2022-11-04T00:47:37.192Z,99892.75
2022-11-04T00:50:10.131Z,99887.94
2022-11-04T00:52:45.491Z,99879.91
2022-11-04T00:55:16.552Z,99879.91
2022-11-04T00:57:43.861Z,99883.94
2022-11-04T01:00:16.993Z,99876.69
2022-11-04T01:02:48.218Z,99876.31
2022-11-04T01:05:16.029Z,99863.03
2022-11-04T01:07:48.673Z,99865.03
2022-11-04T01:10:18.298Z,99853.75
2022-11-04T01:12:48.637Z,99858.56
2022-11-04T01:15:18.463Z,99850.94
2022-11-04T01:17:45.944Z,99841.25
2022-11-04T01:20:20.932Z,99848.13
2022-11-04T01:22:50.765Z,99841.69
2022-11-04T01:25:21.047Z,99827.19
2022-11-04T01:27:55.852Z,99827.56
2022-11-04T01:30:24.132Z,99820.34
2022-11-04T01:32:51.539Z,99818.31
2022-11-04T01:35:25.141Z,99817.09
2022-11-04T01:37:53.152Z,99814.72
2022-11-04T01:40:23.147Z,99805.03
2022-11-04T01:42:51.108Z,99805.03
2022-11-04T01:45:24.387Z,99799.00
2022-11-04T01:48:17.977Z,99790.56
2022-11-04T01:50:45.963Z,99787.75
2022-11-04T01:53:24.762Z,99781.69
2022-11-04T01:56:04.389Z,99774.03
2022-11-04T01:58:34.353Z,99763.56
2022-11-04T02:01:04.289Z,99758.34
2022-11-04T02:03:46.428Z,99755.91
2022-11-04T02:06:20.064Z,99745.44
2022-11-04T02:08:48.615Z,99734.91
2022-11-04T02:11:40.405Z,99717.97
2022-11-04T02:14:08.026Z,99708.22
2022-11-04T02:16:44.327Z,99709.00
2022-11-04T02:19:48.757Z,99683.97
2022-11-04T02:22:55.662Z,99678.66
2022-11-04T02:25:34.632Z,99682.63
2022-11-04T02:28:39.390Z,99675.78
2022-11-04T02:31:33.648Z,99666.06
2022-11-04T02:34:07.147Z,99671.69
2022-11-04T02:36:58.834Z,99653.88
2022-11-04T02:40:09.923Z,99649.88
2022-11-04T02:42:49.020Z,99646.59
2022-11-04T02:45:22.032Z,99658.69
2022-11-04T02:47:56.932Z,99641.72
2022-11-04T02:50:41.475Z,99628.41
2022-11-04T02:53:21.295Z,99625.56
2022-11-04T02:55:53.678Z,99615.78
2022-11-04T02:58:35.420Z,99610.97
2022-11-04T03:01:09.349Z,99598.53
2022-11-04T03:03:45.870Z,99592.81
2022-11-04T03:06:19.435Z,99580.31
2022-11-04T03:08:51.557Z,99578.25
2022-11-04T03:11:25.499Z,99573.09
2022-11-04T03:14:05.353Z,99570.00
2022-11-04T03:16:59.652Z,99557.19
2022-11-04T03:19:33.083Z,99553.22
2022-11-04T03:22:21.148Z,99541.25
2022-11-04T03:24:52.468Z,99533.72
2022-11-04T03:27:32.518Z,99528.16
2022-11-04T03:30:05.811Z,99541.84
2022-11-04T03:32:39.038Z,99532.22
2022-11-04T03:35:10.213Z,99536.66
2022-11-04T03:37:40.472Z,99541.16
2022-11-04T03:40:09.123Z,99542.00
2022-11-04T03:42:46.454Z,99522.69
2022-11-04T03:45:16.531Z,99531.16
2022-11-04T03:47:46.179Z,99529.56
2022-11-04T03:50:26.929Z,99525.16
2022-11-04T03:52:59.965Z,99521.94
2022-11-04T03:56:09.163Z,99515.94
2022-11-04T03:59:04.648Z,99511.53
2022-11-04T04:01:53.187Z,99501.44
2022-11-04T04:04:31.075Z,99519.56
2022-11-04T04:07:09.447Z,99506.28
2022-11-04T04:09:58.115Z,99506.72
2022-11-04T04:12:42.114Z,99512.34
2022-11-04T04:15:22.064Z,99518.41
2022-11-04T04:18:01.921Z,99526.44
2022-11-04T04:20:32.677Z,99525.28
2022-11-04T04:23:36.574Z,99525.72
2022-11-04T04:26:28.512Z,99520.84
2022-11-04T04:29:02.835Z,99507.59
2022-11-04T04:31:52.523Z,99499.13
2022-11-04T04:34:33.408Z,99501.53
2022-11-04T04:37:10.884Z,99490.28
2022-11-04T04:40:17.564Z,99493.06
2022-11-04T04:43:08.905Z,99489.44
2022-11-04T04:45:45.295Z,99495.06
2022-11-04T04:48:20.305Z,99482.59
2022-11-04T04:50:51.343Z,99468.13
2022-11-04T04:53:18.790Z,99471.34
2022-11-04T04:55:51.478Z,99475.75
2022-11-04T04:58:21.696Z,99483.00
2022-11-04T05:00:54.294Z,99448.78
2022-11-04T05:03:26.207Z,99451.63
2022-11-04T05:05:58.691Z,99462.09
2022-11-04T05:08:35.247Z,99467.34
2022-11-04T05:11:02.442Z,99466.13
2022-11-04T05:13:34.573Z,99460.91
2022-11-04T05:16:07.752Z,99451.66
2022-11-04T05:18:35.341Z,99454.50
2022-11-04T05:21:09.959Z,99460.09
2022-11-04T05:23:40.034Z,99452.44
2022-11-04T05:26:11.468Z,99431.13
2022-11-04T05:28:44.600Z,99438.78
2022-11-04T05:31:12.372Z,99453.69
2022-11-04T05:33:39.827Z,99450.84
2022-11-04T05:36:13.034Z,99447.25
2022-11-04T05:39:03.271Z,99431.94
2022-11-04T05:41:33.551Z,99437.16
2022-11-04T05:44:02.624Z,99444.44
2022-11-04T05:46:34.815Z,99433.56
2022-11-04T05:49:06.809Z,99433.16
2022-11-04T05:51:36.316Z,99423.06
2022-11-04T05:54:09.688Z,99431.97
2022-11-04T05:56:39.844Z,99429.56
2022-11-04T05:59:13.101Z,99430.34
2022-11-04T06:01:45.057Z,99435.56
2022-11-04T06:04:19.242Z,99437.97
2022-11-04T06:06:49.093Z,99426.28
2022-11-04T06:09:22.545Z,99409.78
2022-11-04T06:11:55.085Z,99425.50
2022-11-04T06:14:28.421Z,99431.53
2022-11-04T06:16:55.928Z,99433.16
2022-11-04T06:19:31.162Z,99451.66
2022-11-04T06:22:06.182Z,99455.69
2022-11-04T06:24:33.490Z,99458.13
2022-11-04T06:27:00.829Z,99441.22
2022-11-04T06:29:28.690Z,99441.22
2022-11-04T06:32:06.373Z,99435.63
2022-11-04T06:34:33.701Z,99438.00
2022-11-04T06:37:09.788Z,99441.22
2022-11-04T06:39:48.420Z,99455.31
2022-11-04T06:42:21.273Z,99458.94
2022-11-04T06:44:54.526Z,99479.47
2022-11-04T06:47:31.889Z,99488.72
2022-11-04T06:50:07.544Z,99493.16
2022-11-04T06:52:39.494Z,99489.94
2022-11-04T06:55:10.117Z,99504.78
2022-11-04T06:57:42.751Z,99512.78
2022-11-04T07:00:15.362Z,99517.88
2022-11-04T07:02:45.650Z,99532.28
2022-11-04T07:05:14.925Z,99529.75
2022-11-04T07:07:53.230Z,99541.38
2022-11-04T07:10:23.545Z,99547.25
2022-11-04T07:12:51.278Z,99547.53
2022-11-04T07:15:27.259Z,99542.59
2022-11-04T07:17:55.285Z,99546.91
2022-11-04T07:20:28.447Z,99548.88
2022-11-04T07:22:56.508Z,99558.09
2022-11-04T07:25:25.384Z,99580.97
2022-11-04T07:27:56.748Z,99598.69
2022-11-04T07:30:29.519Z,99621.69
2022-11-04T07:33:00.592Z,99604.47
2022-11-04T07:35:28.457Z,99621.78
2022-11-04T07:37:58.923Z,99620.09
2022-11-04T07:40:39.594Z,99625.59
2022-11-04T07:43:12.297Z,99618.03
2022-11-04T07:45:46.470Z,99582.75
2022-11-04T07:48:19.525Z,99601.41
2022-11-04T07:50:50.702Z,99594.59
2022-11-04T07:53:24.447Z,99588.56
2022-11-04T07:55:52.718Z,99600.75
2022-11-04T07:58:26.941Z,99539.16
2022-11-04T08:01:10.480Z,99492.38
2022-11-04T08:03:41.394Z,99455.00
2022-11-04T08:06:21.431Z,99503.28
2022-11-04T08:09:00.219Z,99525.66
2022-11-04T08:11:40.139Z,99527.13
2022-11-04T08:14:17.385Z,99513.13
2022-11-04T08:16:57.446Z,99508.94
2022-11-04T08:19:37.100Z,99519.81
2022-11-04T08:22:16.468Z,99529.63
2022-11-04T08:24:53.295Z,99541.94
2022-11-04T08:27:37.047Z,99565.94
2022-11-04T08:30:11.457Z,99574.56
2022-11-04T08:32:55.833Z,99563.03
2022-11-04T08:35:38.324Z,99554.72
2022-11-04T08:38:25.393Z,99551.38
2022-11-04T08:41:07.489Z,99557.81
2022-11-04T08:43:44.700Z,99562.03
2022-11-04T08:46:20.968Z,99561.66
2022-11-04T08:49:01.080Z,99547.69
2022-11-04T08:51:42.657Z,99545.34
2022-11-04T08:54:14.901Z,99547.06
2022-11-04T08:56:46.337Z,99548.78
2022-11-04T08:59:30.378Z,99539.50
2022-11-04T09:02:04.564Z,99535.56
2022-11-04T09:04:38.875Z,99541.16
2022-11-04T09:07:10.706Z,99548.03
2022-11-04T09:09:43.393Z,99553.75
2022-11-04T09:12:17.668Z,99546.13
2022-11-04T09:14:45.568Z,99548.59
2022-11-04T09:17:13.772Z,99543.75
2022-11-04T09:19:50.058Z,99539.44
2022-11-04T09:22:21.091Z,99535.00
2022-11-04T09:24:56.072Z,99541.25
2022-11-04T09:27:35.861Z,99538.69
2022-11-04T09:30:09.730Z,99551.31
2022-11-04T09:32:42.056Z,99550.50
2022-11-04T09:35:19.377Z,99556.97
2022-11-04T09:37:53.359Z,99556.63
2022-11-04T09:40:24.333Z,99560.75
2022-11-04T09:43:22.393Z,99571.28
2022-11-04T09:45:50.829Z,99559.03
2022-11-04T09:48:49.652Z,99555.06
2022-11-04T09:51:48.368Z,99557.72
2022-11-04T09:54:51.904Z,99553.28
2022-11-04T09:57:26.441Z,99556.47
2022-11-04T10:00:17.906Z,99564.50
2022-11-04T10:02:54.921Z,99559.84
2022-11-04T10:05:29.404Z,99561.13
2022-11-04T10:08:07.678Z,99566.50
2022-11-04T10:10:48.777Z,99566.44
2022-11-04T10:13:26.710Z,99560.41
2022-11-04T10:16:20.053Z,99569.13
2022-11-04T10:19:10.982Z,99570.16
2022-11-04T10:21:47.203Z,99575.72
2022-11-04T10:24:31.975Z,99573.47
2022-11-04T10:27:16.404Z,99570.34
2022-11-04T10:30:01.794Z,99568.19
2022-11-04T10:32:40.856Z,99573.41
2022-11-04T10:35:32.484Z,99576.22
2022-11-04T10:38:30.841Z,99580.22
2022-11-04T10:41:07.062Z,99574.34
2022-11-04T10:43:44.224Z,99575.75
2022-11-04T10:46:38.302Z,99575.13
2022-11-04T10:49:28.363Z,99570.56
2022-11-04T10:52:00.393Z,99587.19
2022-11-04T10:54:48.746Z,99582.28
2022-11-04T10:57:28.470Z,99577.75
2022-11-04T11:00:06.073Z,99587.69
2022-11-04T11:02:42.436Z,99575.66
2022-11-04T11:05:27.277Z,99581.34
2022-11-04T11:07:58.259Z,99578.38
2022-11-04T11:10:37.871Z,99572.66
2022-11-04T11:13:27.584Z,99567.34
2022-11-04T11:16:12.007Z,99563.22
2022-11-04T11:19:03.409Z,99571.66
2022-11-04T11:21:48.906Z,99568.09
2022-11-04T11:24:25.488Z,99569.69
2022-11-04T11:27:23.692Z,99565.56
2022-11-04T11:29:56.481Z,99562.03
2022-11-04T11:32:36.161Z,99561.19
2022-11-04T11:35:18.789Z,99546.03
2022-11-04T11:37:50.750Z,99546.03
2022-11-04T11:40:47.468Z,99544.28
2022-11-04T11:43:36.100Z,99536.50
2022-11-04T11:46:14.366Z,99541.84
2022-11-04T11:48:53.789Z,99544.59
2022-11-04T11:51:39.194Z,99539.50
2022-11-04T11:54:32.926Z,99550.75
2022-11-04T11:57:25.561Z,99547.47
2022-11-04T12:03:03.633Z,99543.31
2022-11-04T12:11:49.300Z,99560.66
2022-11-04T12:14:30.999Z,99555.22
2022-11-04T12:17:37.630Z,99548.97
2022-11-04T12:20:39.414Z,99546.63
2022-11-04T12:23:18.212Z,99544.72
2022-11-04T12:26:14.330Z,99547.09
2022-11-04T12:28:59.502Z,99558.03
2022-11-04T12:31:54.507Z,99563.41
2022-11-04T12:34:45.496Z,99563.81
2022-11-04T12:37:39.636Z,99559.44
2022-11-04T12:40:28.152Z,99565.09
2022-11-04T12:43:30.745Z,99561.44
2022-11-04T12:46:49.305Z,99562.22
2022-11-04T12:49:28.961Z,99563.00
2022-11-04T12:52:12.562Z,99571.94
2022-11-04T12:55:07.565Z,99568.72
2022-11-04T12:57:48.408Z,99570.69
2022-11-04T13:00:27.761Z,99566.22
2022-11-04T13:03:14.942Z,99567.66
2022-11-04T13:06:12.383Z,99556.69
2022-11-04T13:08:54.857Z,99557.81
2022-11-04T13:12:20.323Z,99559.47
2022-11-04T13:15:10.928Z,99551.66
2022-11-04T13:17:47.413Z,99546.09
2022-11-04T13:20:39.992Z,99546.19
2022-11-04T13:23:29.255Z,99543.97
2022-11-04T13:26:03.502Z,99544.91
2022-11-04T13:28:42.654Z,99539.22
2022-11-04T13:31:30.810Z,99536.31
2022-11-04T13:34:57.951Z,99530.41
2022-11-04T13:37:40.444Z,99525.00
2022-11-04T13:40:22.360Z,99515.13
2022-11-04T13:43:47.164Z,99512.94
2022-11-04T13:46:30.976Z,99517.00
2022-11-04T13:49:14.813Z,99523.81
2022-11-04T13:52:00.970Z,99520.84
2022-11-04T13:54:35.859Z,99522.38
2022-11-04T13:57:10.412Z,99523.16
2022-11-04T13:59:44.425Z,99525.50
2022-11-04T14:02:15.194Z,99520.69
2022-11-04T14:04:52.427Z,99529.38
2022-11-04T14:08:19.393Z,99534.69
2022-11-04T14:10:53.108Z,99520.72
2022-11-04T14:13:30.087Z,99525.59
2022-11-04T14:16:25.732Z,99515.69
2022-11-04T14:18:56.745Z,99523.78
2022-11-04T14:21:32.985Z,99525.63
2022-11-04T14:24:16.220Z,99521.69
2022-11-04T14:26:54.386Z,99506.66
2022-11-04T14:29:33.972Z,99506.19
2022-11-04T14:32:15.024Z,99509.03
2022-11-04T14:34:44.750Z,99509.94
2022-11-04T14:37:23.402Z,99512.09
2022-11-04T14:40:05.385Z,99503.69
2022-11-04T14:42:57.262Z,99504.41
2022-11-04T14:45:39.593Z,99497.19
2022-11-04T14:48:19.546Z,99493.25
2022-11-04T14:50:52.125Z,99490.03
2022-11-04T14:53:37.987Z,99482.78
2022-11-04T14:56:36.623Z,99476.31
2022-11-04T14:59:10.724Z,99490.25
2022-11-04T15:01:42.858Z,99487.31
2022-11-04T15:04:32.584Z,99497.00
2022-11-04T15:07:07.466Z,99491.72
2022-11-04T15:09:44.143Z,99498.59
2022-11-04T15:12:42.475Z,99493.75
2022-11-04T15:15:27.365Z,99500.78
2022-11-04T15:18:09.909Z,99496.41
2022-11-04T15:20:56.357Z,99497.59
2022-11-04T15:23:58.852Z,99487.22
2022-11-04T15:26:34.288Z,99495.97
2022-11-04T15:29:14.148Z,99487.88
2022-11-04T15:31:59.314Z,99478.91
2022-11-04T15:34:50.635Z,99471.16
2022-11-04T15:37:29.042Z,99470.91
2022-11-04T15:40:09.991Z,99465.66
2022-11-04T15:42:47.074Z,99461.22
2022-11-04T15:45:39.426Z,99466.19
2022-11-04T15:48:38.239Z,99460.84
2022-11-04T15:51:26.035Z,99459.59
2022-11-04T15:54:29.819Z,99464.75
2022-11-04T15:57:04.983Z,99470.34
2022-11-04T15:59:38.462Z,99467.06
2022-11-04T16:02:23.529Z,99467.94
2022-11-04T16:05:14.643Z,99470.00
2022-11-04T16:07:51.950Z,99469.41
2022-11-04T16:10:32.629Z,99466.50
2022-11-04T16:13:16.800Z,99467.88
2022-11-04T16:16:28.293Z,99469.75
2022-11-04T16:18:59.547Z,99477.91
2022-11-04T16:21:34.935Z,99481.72
2022-11-04T16:24:20.067Z,99480.09
2022-11-04T16:26:55.557Z,99492.22
2022-11-04T16:29:47.670Z,99483.28
2022-11-04T16:32:48.954Z,99487.91
